createdAt,value
2022-10-10T00:02:57.965Z,4.27
2022-10-10T00:06:59.575Z,4.57
2022-10-10T00:11:01.309Z,4.47
2022-10-10T00:15:03.880Z,4.40
2022-10-10T00:19:05.606Z,4.50
2022-10-10T00:23:08.016Z,4.37
2022-10-10T00:27:09.710Z,4.03
2022-10-10T00:31:11.368Z,4.40
2022-10-10T00:35:13.408Z,4.30
2022-10-10T00:39:15.086Z,4.13
2022-10-10T00:43:18.209Z,4.47
2022-10-10T00:47:20.277Z,4.77
2022-10-10T00:51:21.918Z,4.23
2022-10-10T00:55:23.702Z,4.63
2022-10-10T00:59:27.028Z,4.73
2022-10-10T01:03:28.748Z,4.63
2022-10-10T01:07:31.668Z,4.47
2022-10-10T01:11:52.886Z,5.20
2022-10-10T01:16:10.857Z,4.83
2022-10-10T01:20:18.848Z,5.30
2022-10-10T01:24:37.614Z,4.67
2022-10-10T01:29:05.736Z,5.20
2022-10-10T01:33:14.568Z,4.90
2022-10-10T01:37:20.686Z,4.40
2022-10-10T01:41:43.308Z,4.80
2022-10-10T01:45:50.926Z,4.70
2022-10-10T01:49:57.865Z,4.60
2022-10-10T01:54:08.747Z,4.33
2022-10-10T01:58:39.408Z,4.60
2022-10-10T02:02:41.042Z,4.50
2022-10-10T02:06:55.619Z,4.60
2022-10-10T02:11:01.840Z,4.33
2022-10-10T02:15:16.518Z,4.50
2022-10-10T02:19:21.107Z,4.43
2022-10-10T02:23:24.773Z,4.03
2022-10-10T02:27:30.339Z,4.77
2022-10-10T02:31:47.397Z,4.30
2022-10-10T02:35:51.792Z,4.50
2022-10-10T02:40:01.001Z,4.90
2022-10-10T02:44:03.134Z,4.90
2022-10-10T02:48:05.030Z,4.47
2022-10-10T02:52:07.441Z,4.47
2022-10-10T02:56:09.122Z,4.70
2022-10-10T03:00:11.551Z,4.70
2022-10-10T03:04:14.178Z,5.30
2022-10-10T03:08:15.804Z,4.87
2022-10-10T03:12:18.002Z,4.87
2022-10-10T03:16:19.620Z,4.57
2022-10-10T03:20:22.015Z,4.27
2022-10-10T03:24:23.654Z,4.90
2022-10-10T03:28:25.339Z,4.63
2022-10-10T03:32:27.058Z,4.60
2022-10-10T03:36:29.519Z,5.03
2022-10-10T03:40:31.222Z,4.47
2022-10-10T03:44:32.932Z,4.30
2022-10-10T03:48:35.696Z,4.40
2022-10-10T03:52:37.565Z,4.50
2022-10-10T03:56:39.244Z,4.90
2022-10-10T04:00:41.052Z,4.80
2022-10-10T04:04:42.713Z,4.87
2022-10-10T04:08:44.365Z,5.53
2022-10-10T04:12:46.077Z,5.57
2022-10-10T04:16:47.718Z,5.10
2022-10-10T04:20:49.461Z,5.30
2022-10-10T04:24:51.145Z,7.17
2022-10-10T04:28:52.841Z,6.53
2022-10-10T04:32:54.499Z,6.20
2022-10-10T04:36:56.173Z,6.00
2022-10-10T04:40:57.884Z,5.80
2022-10-10T04:44:59.834Z,4.90
2022-10-10T04:49:03.120Z,4.70
2022-10-10T04:53:05.778Z,5.40
2022-10-10T04:57:07.458Z,6.00
2022-10-10T05:01:09.258Z,5.43
2022-10-10T05:05:11.203Z,8.57
2022-10-10T05:09:13.288Z,12.55
2022-10-10T05:13:16.847Z,8.70
2022-10-10T05:17:19.128Z,5.43
2022-10-10T05:21:20.816Z,5.53
2022-10-10T05:25:22.519Z,5.10
2022-10-10T05:29:24.270Z,7.50
2022-10-10T05:33:25.909Z,5.27
2022-10-10T05:37:27.557Z,4.87
2022-10-10T05:41:29.253Z,5.00
2022-10-10T05:45:31.617Z,4.90
2022-10-10T05:49:33.258Z,5.60
2022-10-10T05:53:34.962Z,5.40
2022-10-10T05:57:36.694Z,6.40
2022-10-10T06:01:38.387Z,5.73
2022-10-10T06:05:41.201Z,6.03
2022-10-10T06:09:42.838Z,7.20
2022-10-10T06:13:45.197Z,6.90
2022-10-10T06:17:46.978Z,6.50
2022-10-10T06:21:49.705Z,6.27
2022-10-10T06:25:53.009Z,7.20
2022-10-10T06:29:54.648Z,6.80
2022-10-10T06:33:56.335Z,6.93
2022-10-10T06:37:58.018Z,6.43
2022-10-10T06:41:59.757Z,6.00
2022-10-10T06:46:02.412Z,6.73
2022-10-10T06:50:04.357Z,6.53
2022-10-10T06:54:06.183Z,7.40
2022-10-10T06:58:07.901Z,7.53
2022-10-10T07:02:13.581Z,6.70
2022-10-10T07:06:16.562Z,7.17
2022-10-10T07:10:18.245Z,6.90
2022-10-10T07:14:19.927Z,8.40
2022-10-10T07:18:21.965Z,12.00
2022-10-10T07:22:24.297Z,10.27
2022-10-10T07:26:28.180Z,9.67
2022-10-10T07:30:29.833Z,9.90
2022-10-10T07:34:31.647Z,9.33
2022-10-10T07:38:34.058Z,9.70
2022-10-10T07:42:35.731Z,9.40
2022-10-10T07:46:37.426Z,9.37
2022-10-10T07:50:43.344Z,9.23
2022-10-10T07:54:45.029Z,11.05
2022-10-10T07:58:46.759Z,10.48
2022-10-10T08:02:48.401Z,11.07
2022-10-10T08:06:50.094Z,11.13
2022-10-10T08:10:51.843Z,9.57
2022-10-10T08:14:53.714Z,11.02
2022-10-10T08:18:55.394Z,10.87
2022-10-10T08:22:57.082Z,11.02
2022-10-10T08:26:58.902Z,14.30
2022-10-10T08:31:06.119Z,11.65
2022-10-10T08:35:08.271Z,10.93
2022-10-10T08:39:11.040Z,17.55
2022-10-10T08:43:23.274Z,11.87
2022-10-10T08:47:34.106Z,12.30
2022-10-10T08:51:35.958Z,12.35
2022-10-10T08:55:43.890Z,11.98
2022-10-10T08:59:45.887Z,11.23
2022-10-10T09:03:53.355Z,10.93
2022-10-10T09:08:03.103Z,12.15
2022-10-10T09:12:17.311Z,13.43
2022-10-10T09:16:48.284Z,11.43
2022-10-10T09:21:01.381Z,12.00
2022-10-10T09:25:12.461Z,11.45
2022-10-10T09:29:23.183Z,10.93
2022-10-10T09:33:41.681Z,11.30
2022-10-10T09:37:47.755Z,11.85
2022-10-10T09:42:03.941Z,11.82
2022-10-10T09:46:06.314Z,10.90
2022-10-10T09:50:11.977Z,11.10
2022-10-10T09:54:16.535Z,11.82
2022-10-10T09:58:36.259Z,11.65
2022-10-10T10:02:37.885Z,11.50
2022-10-10T10:06:44.543Z,10.77
2022-10-10T10:10:46.212Z,10.98
2022-10-10T10:14:48.429Z,10.88
2022-10-10T10:18:50.090Z,11.48
2022-10-10T10:26:54.574Z,12.48
2022-10-10T10:30:58.942Z,11.23
2022-10-10T10:35:12.366Z,11.10
2022-10-10T10:39:14.017Z,10.85
2022-10-10T10:43:24.573Z,10.93
2022-10-10T10:48:06.658Z,9.93
2022-10-10T10:52:21.543Z,10.43
2022-10-10T10:57:02.072Z,11.38
2022-10-10T11:01:45.039Z,10.93
2022-10-10T11:06:23.529Z,10.35
2022-10-10T11:11:00.348Z,10.65
2022-10-10T11:15:14.920Z,10.07
2022-10-10T11:19:19.462Z,10.18
2022-10-10T11:23:29.724Z,10.77
2022-10-10T11:27:52.874Z,9.88
2022-10-10T11:32:00.714Z,11.27
2022-10-10T11:36:24.627Z,9.98
2022-10-10T11:40:35.088Z,10.23
2022-10-10T11:44:41.950Z,9.88
2022-10-10T11:48:53.197Z,8.38
2022-10-10T11:53:22.617Z,8.95
2022-10-10T11:57:53.316Z,8.98
2022-10-10T12:06:15.004Z,9.43
2022-10-10T12:10:27.870Z,8.77
2022-10-10T12:14:31.541Z,9.75
2022-10-10T12:18:45.429Z,8.95
2022-10-10T12:23:18.228Z,9.25
2022-10-10T12:27:41.095Z,7.95
2022-10-10T12:31:42.745Z,8.43
2022-10-10T12:35:44.470Z,6.53
2022-10-10T12:40:01.406Z,7.53
2022-10-10T12:44:19.844Z,7.30
2022-10-10T12:48:22.558Z,8.02
2022-10-10T12:52:31.669Z,7.47
2022-10-10T12:56:43.972Z,7.45
2022-10-10T13:00:47.764Z,8.70
2022-10-10T13:04:53.278Z,8.95
2022-10-10T13:08:55.763Z,8.10
2022-10-10T13:13:20.280Z,7.00
2022-10-10T13:17:36.897Z,8.43
2022-10-10T13:21:38.584Z,7.85
2022-10-10T13:25:41.091Z,7.03
2022-10-10T13:29:43.181Z,8.05
2022-10-10T13:34:45.059Z,7.00
2022-10-10T13:38:50.966Z,7.55
2022-10-10T13:42:53.742Z,7.68
2022-10-10T13:46:55.462Z,6.75
2022-10-10T13:50:57.230Z,8.27
2022-10-10T13:55:15.948Z,7.60
2022-10-10T13:59:18.713Z,7.25
2022-10-10T14:03:22.202Z,7.88
2022-10-10T14:07:28.457Z,7.35
2022-10-10T14:12:27.839Z,5.88
2022-10-10T14:16:29.596Z,4.72
2022-10-10T14:20:31.285Z,4.78
2022-10-10T14:24:32.993Z,4.22
2022-10-10T14:28:38.558Z,4.53
2022-10-10T14:32:40.579Z,4.05
2022-10-10T14:36:51.153Z,4.20
2022-10-10T14:40:54.549Z,5.00
2022-10-10T14:44:56.216Z,4.68
2022-10-10T14:48:57.843Z,5.32
2022-10-10T14:52:59.806Z,5.68
2022-10-10T14:57:09.109Z,6.00
2022-10-10T15:01:11.821Z,5.93
2022-10-10T15:05:14.362Z,5.35
2022-10-10T15:09:39.589Z,5.22
2022-10-10T15:13:39.253Z,5.75
2022-10-10T15:17:41.384Z,5.72
2022-10-10T15:21:43.064Z,5.18
2022-10-10T15:25:44.853Z,5.45
2022-10-10T15:29:46.589Z,5.20
2022-10-10T15:33:48.289Z,5.03
2022-10-10T15:37:58.301Z,5.20
2022-10-10T15:42:09.353Z,6.50
2022-10-10T15:46:15.151Z,8.40
2022-10-10T15:50:16.917Z,6.75
2022-10-10T15:54:18.618Z,6.65
2022-10-10T15:58:20.434Z,5.32
2022-10-10T16:02:22.293Z,6.28
2022-10-10T16:06:29.409Z,5.60
2022-10-10T16:10:31.391Z,6.32
2022-10-10T16:14:33.337Z,8.25
2022-10-10T16:18:40.322Z,7.95
2022-10-10T16:22:42.232Z,7.80
2022-10-10T16:26:46.580Z,9.13
2022-10-10T16:30:48.738Z,8.52
2022-10-10T16:34:50.395Z,7.95
2022-10-10T16:38:53.913Z,7.03
2022-10-10T16:42:55.570Z,7.03
2022-10-10T16:46:57.316Z,6.32
2022-10-10T16:51:16.366Z,6.15
2022-10-10T16:55:18.117Z,5.63
2022-10-10T16:59:21.999Z,4.97
2022-10-10T17:03:25.119Z,5.35
2022-10-10T17:07:27.435Z,5.65
2022-10-10T17:11:29.255Z,6.68
2022-10-10T17:15:31.163Z,11.57
2022-10-10T17:19:33.328Z,5.80
2022-10-10T17:23:35.026Z,4.75
2022-10-10T17:27:40.198Z,6.20
2022-10-10T17:31:41.919Z,5.25
2022-10-10T17:35:45.741Z,6.47
2022-10-10T17:39:47.677Z,6.95
2022-10-10T17:43:49.392Z,6.68
2022-10-10T17:47:51.073Z,6.30
2022-10-10T17:51:52.785Z,7.40
2022-10-10T17:55:54.463Z,7.93
2022-10-10T17:59:56.170Z,9.90
2022-10-10T18:03:58.489Z,8.45
2022-10-10T18:08:00.207Z,8.75
2022-10-10T18:12:02.149Z,8.50
2022-10-10T18:16:12.480Z,7.90
2022-10-10T18:20:14.233Z,8.35
2022-10-10T18:24:17.925Z,8.15
2022-10-10T18:28:19.693Z,8.77
2022-10-10T18:32:21.374Z,8.35
2022-10-10T18:36:26.581Z,12.55
2022-10-10T18:40:28.252Z,13.82
2022-10-10T18:44:30.548Z,12.70
2022-10-10T18:48:32.813Z,12.20
2022-10-10T18:52:35.116Z,11.35
2022-10-10T18:56:41.608Z,7.32
2022-10-10T19:00:43.304Z,8.27
2022-10-10T19:04:48.219Z,6.60
2022-10-10T19:08:53.645Z,7.45
2022-10-10T19:12:55.280Z,6.78
2022-10-10T19:16:56.997Z,5.95
2022-10-10T19:21:00.198Z,6.47
2022-10-10T19:25:02.948Z,5.87
2022-10-10T19:29:07.430Z,6.10
2022-10-10T19:33:10.050Z,6.60
2022-10-10T19:37:11.780Z,7.07
2022-10-10T19:41:14.526Z,6.63
2022-10-10T19:45:16.229Z,6.40
2022-10-10T19:49:17.874Z,6.50
2022-10-10T19:53:19.627Z,5.90
2022-10-10T19:57:21.294Z,3.20
2022-10-10T20:01:29.019Z,3.37
2022-10-10T20:05:31.596Z,3.25
2022-10-10T20:09:33.516Z,4.97
2022-10-10T20:13:35.654Z,4.70
2022-10-10T20:17:37.594Z,6.10
2022-10-10T20:21:39.326Z,7.33
2022-10-10T20:25:43.816Z,7.57
2022-10-10T20:29:45.687Z,6.73
2022-10-10T20:33:49.309Z,6.27
2022-10-10T20:37:50.987Z,7.90
2022-10-10T20:41:52.754Z,7.50
2022-10-10T20:45:54.421Z,7.13
2022-10-10T20:49:56.069Z,9.20
2022-10-10T20:54:00.790Z,9.43
2022-10-10T20:58:02.450Z,9.13
2022-10-10T21:02:04.208Z,8.43
2022-10-10T21:06:09.034Z,8.18
2022-10-10T21:10:10.861Z,9.23
2022-10-10T21:14:12.543Z,9.13
2022-10-10T21:18:14.191Z,9.23
2022-10-10T21:22:15.826Z,8.37
2022-10-10T21:26:20.990Z,9.70
2022-10-10T21:30:24.653Z,10.40
2022-10-10T21:34:26.311Z,9.48
2022-10-10T21:38:27.972Z,9.68
2022-10-10T21:42:29.694Z,7.53
2022-10-10T21:46:36.449Z,9.20
2022-10-10T21:50:39.306Z,8.93
2022-10-10T21:54:40.982Z,6.43
2022-10-10T21:58:45.126Z,5.23
2022-10-10T22:02:47.410Z,4.60
2022-10-10T22:06:49.068Z,4.28
2022-10-10T22:10:51.500Z,4.63
2022-10-10T22:14:53.326Z,4.67
2022-10-10T22:18:56.632Z,5.03
2022-10-10T22:22:58.321Z,4.30
2022-10-10T22:26:59.982Z,4.45
2022-10-10T22:31:13.780Z,3.60
2022-10-10T22:35:15.500Z,3.33
2022-10-10T22:39:17.353Z,2.75
2022-10-10T22:43:18.988Z,2.70
2022-10-10T22:47:21.350Z,2.30
2022-10-10T22:51:22.992Z,2.87
2022-10-10T22:55:24.769Z,2.10
2022-10-10T22:59:27.449Z,2.60
2022-10-10T23:03:29.085Z,2.30
2022-10-10T23:07:30.938Z,2.38
2022-10-10T23:11:33.217Z,2.97
2022-10-10T23:15:35.048Z,2.67
2022-10-10T23:19:36.713Z,3.13
2022-10-10T23:23:38.589Z,3.45
2022-10-10T23:27:40.374Z,3.33
2022-10-10T23:31:42.039Z,2.78
2022-10-10T23:35:43.835Z,6.18
2022-10-10T23:39:45.605Z,3.78
2022-10-10T23:43:47.342Z,3.55
2022-10-10T23:47:49.046Z,3.33
2022-10-10T23:51:50.691Z,3.42
2022-10-10T23:55:52.388Z,3.10
2022-10-10T23:59:54.099Z,3.50
